x

Buoy B01 - Western Maine Shelf (44030) Wave Buoy

1:04 - Thu 29th Jun 2017 All times are EDT. -4 hours from GMT.

  • Sig Wave height 1.0ft
  • Peak Period 8s
  • Wind
    7mph, 9mph gusts
  • Sea Temp 56°f
  • Air Temp 59°f
  • Sea Pressure 1017.5mb
  • Buoy B01 - Western Maine Shelf
  • Buoy B01 - Western Maine Shelf

More Historic Weather Station data

Upgrade to MSW Pro to gain access to the past 30 days of data for over 8000 Wavebouys and Weather Stations around the globe.

Join Pro

Comparision Forecast

View Surf forecast
   
jeu. 06/29 1:04 1ft 8s 7 9 mph 1017.5mb 56f 59f
12:04 1ft 6s 7 9 mph 1017.6mb 56f 58f
mer. 06/28 11:04 0.3ft  -  2 4 mph 1017.6mb 56f 59f
10:04 1ft 8s 7 9 mph 1017.7mb 56f 61f
9:04 1ft 8s 7 7 mph 1017.2mb 56f 62f
8:04 0.7ft  -  7 7 mph 1016.4mb 56f 62f
7:04 1.3ft 11s 7 9 mph 1016.1mb 56f 63f
6:04 1.3ft 11s 7 9 mph 1015.5mb 56f 62f
5:04 1.3ft 6s 4 18 mph 1015.2mb 57f 62f
4:04 1ft 6s 9 11 mph 1015.5mb 56f 63f
3:04 1.3ft 2s 9 11 mph 1015.3mb 57f 63f
2:04 1.3ft 2s 9 11 mph 1015.4mb 56f 63f
1:04 1.3ft 2s 7 9 mph 1015.2mb 56f 62f
12:04 1.3ft 3s 9 9 mph 1015.2mb 56f 61f
9:04 1.6ft 8s 9 9 mph 1015.3mb 55f 56f
8:04 1.6ft 6s 9 9 mph 1015.2mb 55f 56f
7:04 1.3ft 5s 11 13 mph 1015.1mb 55f 54f
6:04 1.6ft 8s 9 11 mph 1014.8mb 55f 54f
5:04 2ft 8s 13 16 mph 1014.2mb 55f 55f
4:04 1.6ft 6s 9 11 mph 1013.6mb 55f 55f
3:04 2ft 5s 9 11 mph 1013.3mb 55f 55f
2:04 2ft 5s 11 11 mph 1013.3mb 55f 56f
1:04 2ft 5s 7 9 mph 1013.8mb 55f 56f
12:04 2ft 5s 9 11 mph 1013.9mb 55f 55f
mar. 06/27 11:04 2ft 4s 11 13 mph 1013.4mb 55f 57f
10:04 2ft 5s 4 7 mph 1014mb 55f 58f
9:04 2ft 3s 4 7 mph 1013.8mb 55f 59f
8:04 1.6ft 8s 7 11 mph 1013mb 56f 59f
7:04 2ft 3s 13 16 mph 1012.4mb 56f 58f
6:04 1.3ft 3s 7 9 mph 1012.4mb 56f 59f
5:04 1.6ft 6s 22 25 mph 1013.3mb 56f 60f
4:04 1.6ft 8s 11 11 mph 1013mb 57f 59f
3:04 1.3ft 8s 11 13 mph 1013.3mb 57f 59f
2:04 1.3ft 8s 9 9 mph 1013.8mb 57f 59f
1:04 1.3ft 6s 7 9 mph 1014.4mb 57f 59f
12:04 1.3ft 6s 7 7 mph 1015.3mb 57f 60f
11:04 1.3ft 6s 4 4 mph 1015.8mb 57f 59f
10:04 1.3ft 8s 4 4 mph 1016.1mb 56f 58f
9:04 1.6ft 8s 4 4 mph 1016mb 56f 58f
8:04 1.3ft 6s 4 4 mph 1015.8mb 56f 57f
7:04 1.6ft 8s 7 7 mph 1015.6mb 56f 57f
6:04 1.6ft 8s 7 9 mph 1015.6mb 56f 57f
5:04 2ft 8s 9 11 mph 1015.3mb 56f 57f
4:04 1.6ft 6s 9 11 mph 1015.1mb 56f 57f
3:04 1.6ft 6s 9 9 mph 1014.5mb 56f 58f
2:04 1.6ft 8s 4 4 mph 1014.4mb 56f 58f
12:04 1.3ft 8s 7 9 mph 1014.5mb 56f 58f
lun. 06/26 11:04 1.6ft 8s 7 7 mph 1014.4mb 56f 61f
10:04 1.6ft 8s 7 9 mph 1014.7mb 56f 60f
9:04 1.3ft 8s 7 7 mph 1014.3mb 56f 59f
8:04 1.6ft 8s 11 13 mph 1014.2mb 57f 61f
7:04 1.3ft 8s 9 11 mph 1013.9mb 57f 61f
6:04 1.6ft 6s 11 13 mph 1013.3mb 57f 62f
5:04 1.6ft 8s 9 11 mph 1013mb 57f 62f
4:04 1.6ft 6s 7 7 mph 1013.1mb 57f 62f
3:04 1.6ft 8s 9 11 mph 1013.3mb 57f 61f
2:04 1.6ft 6s 11 13 mph 1013.6mb 57f 60f
1:04 2ft 6s 11 13 mph 1013.8mb 57f 60f
12:04 2ft 8s 4 7 mph 1013.9mb 56f 63f
11:04 2ft 8s 4 4 mph 1013.9mb 55f 61f
10:04 1.6ft 6s 7 9 mph 1013.8mb 55f 60f
9:04 2ft 8s 9 11 mph 1014.2mb 54f 58f
7:04 2ft 8s 9 11 mph 1013.3mb 54f 60f
6:04 2ft 8s 7 7 mph 1012.8mb 54f 57f
5:04 2ft 6s 11 11 mph 1012.3mb 54f 57f
4:04 2ft 8s 9 9 mph 1011.9mb 54f 57f
3:04 2ft 8s 4 7 mph 1011.6mb 54f 57f
2:04 2.5ft 8s 11 11 mph 1011.9mb 55f 59f
1:04 2.5ft 8s 11 13 mph 1011.9mb 54f 62f
12:04 2.5ft 8s 9 9 mph 1011.7mb 53f 59f
dim. 06/25 11:04 2.5ft 8s 11 13 mph 1012.1mb 53f 60f
10:04 2.5ft 8s 7 13 mph 1011.7mb 54f 69f
9:04 2.5ft 8s 11 13 mph 1011.1mb 55f 60f
8:04 3ft 8s 11 11 mph 1010.9mb 55f 59f
7:04 2.5ft 6s 16 18 mph 1010.8mb 56f 61f
6:04 2.5ft 8s 13 16 mph 1010.6mb 56f 61f
5:04 2.5ft 8s 11 13 mph 1010.7mb 57f 62f
4:04 2.5ft 8s 11 11 mph 1010.9mb 57f 61f
3:04 2.5ft 11s 11 11 mph 1011.2mb 57f 61f
2:04 2ft 6s 11 13 mph 1011.7mb 56f 61f
1:04 2.5ft 8s 11 11 mph 1012mb 56f 61f
12:04 2.5ft 8s 9 9 mph 1012.3mb 57f 60f
11:04 3ft 8s 7 9 mph 1012.6mb 56f 61f
10:04 2.5ft 8s 4 7 mph 1012.8mb 55f 60f
9:04 2.5ft 8s 4 7 mph 1012.9mb 55f 60f
8:04 2.5ft 8s 7 7 mph 1012.8mb 55f 59f